Time;durP1;ratioP1;P1;durP2;ratioP2;P2;SDS_P1;SDS_P2;PMS_P1;PMS_P2;Temp;Humidity;BMP_temperature;BMP_pressure;BME280_temperature;BME280_humidity;BME280_pressure;Samples;Min_cycle;Max_cycle;Signal;HPM_P1;HPM_P2
2022/05/28 00:01:38;;;;;;;4.70;2.33;;;21.30;54.10;;;;;;4841089;29;20041;-71
2022/05/28 00:04:08;;;;;;;3.92;1.90;;;21.30;54.10;;;;;;4841017;29;20025;-71
2022/05/28 00:06:35;;;;;;;3.25;2.10;;;21.30;54.10;;;;;;4840943;29;20097;-71
2022/05/28 00:09:01;;;;;;;3.58;2.03;;;21.30;54.00;;;;;;4839398;29;20443;-71
2022/05/28 00:11:34;;;;;;;4.95;2.40;;;21.30;54.00;;;;;;4840224;29;20165;-71
2022/05/28 00:14:01;;;;;;;3.83;2.00;;;21.30;54.00;;;;;;4840912;29;20153;-71
2022/05/28 00:16:27;;;;;;;4.38;2.10;;;21.30;53.90;;;;;;4840871;29;20283;-71
2022/05/28 00:18:53;;;;;;;3.53;2.00;;;21.30;53.90;;;;;;4839138;29;20510;-71
2022/05/28 00:21:23;;;;;;;2.60;1.75;;;21.30;54.00;;;;;;4839755;29;20491;-71
2022/05/28 00:23:49;;;;;;;4.00;2.05;;;21.30;53.90;;;;;;4840624;29;20093;-71
2022/05/28 00:26:15;;;;;;;3.13;2.05;;;21.30;54.00;;;;;;4839744;29;20034;-71
2022/05/28 00:28:41;;;;;;;3.83;1.95;;;21.30;54.00;;;;;;4840361;29;20060;-71
2022/05/28 00:31:07;;;;;;;4.15;2.17;;;21.30;54.00;;;;;;4840672;29;20026;-71
2022/05/28 00:33:34;;;;;;;3.42;1.98;;;21.30;53.90;;;;;;4824157;29;20033;-71
2022/05/28 00:36:01;;;;;;;3.47;2.08;;;21.30;53.90;;;;;;4840851;29;20552;-71
2022/05/28 00:38:27;;;;;;;3.42;2.05;;;21.30;53.90;;;;;;4839239;29;20044;-71
2022/05/28 00:40:57;;;;;;;5.07;2.25;;;21.30;53.90;;;;;;4839620;29;20034;-71
2022/05/28 00:43:24;;;;;;;3.00;2.00;;;21.30;53.90;;;;;;4839513;29;20029;-71
2022/05/28 00:45:59;;;;;;;3.15;2.20;;;21.30;54.00;;;;;;4840392;29;20399;-71
2022/05/28 00:48:29;;;;;;;4.80;2.03;;;21.30;53.80;;;;;;4838289;29;20403;-71
2022/05/28 00:50:57;;;;;;;3.75;1.90;;;21.30;54.00;;;;;;4840607;29;20034;-71
2022/05/28 00:53:23;;;;;;;2.97;1.92;;;21.30;53.80;;;;;;4839347;29;20108;-71
2022/05/28 00:55:48;;;;;;;2.55;1.70;;;21.30;53.80;;;;;;4839296;29;20030;-71
2022/05/28 00:58:15;;;;;;;4.05;2.00;;;21.30;53.80;;;;;;4824185;29;20030;-71
2022/05/28 01:00:42;;;;;;;3.00;1.92;;;21.30;53.90;;;;;;4824236;29;20109;-71
2022/05/28 01:03:23;;;;;;;5.38;2.30;;;21.20;53.70;;;;;;4824141;29;20368;-71
2022/05/28 01:06:10;;;;;;;3.50;2.10;;;21.30;53.80;;;;;;4840307;29;20070;-71
2022/05/28 01:09:02;;;;;;;4.20;2.30;;;21.30;53.90;;;;;;4838751;29;20522;-71
2022/05/28 01:11:35;;;;;;;3.63;1.85;;;21.30;53.80;;;;;;4838466;29;20042;-71
2022/05/28 01:14:12;;;;;;;4.43;2.25;;;21.30;53.80;;;;;;4840171;29;20062;-71
2022/05/28 01:16:43;;;;;;;3.75;1.92;;;21.30;53.80;;;;;;4839413;29;20534;-71
2022/05/28 01:19:32;;;;;;;3.40;1.92;;;21.30;53.70;;;;;;4839679;29;20445;-71
2022/05/28 01:22:17;;;;;;;3.53;1.93;;;21.30;53.80;;;;;;4840269;29;20042;-71
2022/05/28 01:25:12;;;;;;;4.75;2.00;;;21.30;53.80;;;;;;4839983;29;20065;-72
2022/05/28 01:27:49;;;;;;;3.70;2.03;;;21.20;53.70;;;;;;4832225;29;20484;-71
2022/05/28 01:30:17;;;;;;;4.18;1.83;;;21.20;53.70;;;;;;4838797;29;20496;-71
2022/05/28 01:32:47;;;;;;;4.63;2.28;;;21.20;53.60;;;;;;4839967;29;20048;-71
2022/05/28 01:35:15;;;;;;;5.35;1.80;;;21.20;53.70;;;;;;4839002;29;20030;-71
2022/05/28 01:37:43;;;;;;;3.97;2.33;;;21.20;53.80;;;;;;4838548;29;20061;-71
2022/05/28 01:40:11;;;;;;;2.88;1.80;;;21.30;53.90;;;;;;4840000;29;20507;-71
2022/05/28 01:42:41;;;;;;;2.83;1.67;;;21.30;53.90;;;;;;4823557;29;20495;-71
2022/05/28 01:45:08;;;;;;;4.30;1.90;;;21.30;53.80;;;;;;4840198;29;20071;-71
2022/05/28 01:47:35;;;;;;;4.28;2.03;;;21.30;53.70;;;;;;4823533;29;20077;-71
2022/05/28 01:50:03;;;;;;;3.50;1.65;;;21.30;53.80;;;;;;4838718;29;20044;-71
2022/05/28 01:52:32;;;;;;;4.15;1.95;;;21.20;53.80;;;;;;4839867;29;20101;-71
2022/05/28 01:55:00;;;;;;;4.40;1.65;;;21.30;53.80;;;;;;4839824;29;20391;-71
2022/05/28 01:57:26;;;;;;;3.42;2.03;;;21.20;53.60;;;;;;4839609;29;20086;-71
2022/05/28 01:59:53;;;;;;;4.50;1.80;;;21.20;53.80;;;;;;4841050;29;20064;-71
2022/05/28 02:02:19;;;;;;;4.03;1.88;;;21.20;53.70;;;;;;4826880;29;20091;-71
2022/05/28 02:04:47;;;;;;;3.78;1.63;;;21.20;53.50;;;;;;4842155;29;20034;-71
2022/05/28 02:07:14;;;;;;;3.10;1.80;;;21.20;53.80;;;;;;4841588;29;20059;-71
2022/05/28 02:09:54;;;;;;;3.50;1.80;;;21.20;53.80;;;;;;4841684;29;20487;-71
2022/05/28 02:12:35;;;;;;;;;;;21.20;53.80;;;;;;4842189;29;20056;-71
2022/05/28 02:15:25;;;;;;;5.43;1.90;;;21.20;53.70;;;;;;4842995;29;19998;-71
2022/05/28 02:18:18;;;;;;;2.83;1.73;;;21.20;53.70;;;;;;4842513;29;20038;-71
2022/05/28 02:21:08;;;;;;;3.58;1.98;;;21.20;53.70;;;;;;4841754;29;20049;-71
2022/05/28 02:23:47;;;;;;;3.03;1.70;;;21.20;53.70;;;;;;4826364;29;20083;-71
2022/05/28 02:26:17;;;;;;;4.27;1.60;;;21.20;53.70;;;;;;4842815;29;20049;-71
2022/05/28 02:28:45;;;;;;;5.57;1.85;;;21.20;53.60;;;;;;4842319;29;20053;-71
2022/05/28 02:31:20;;;;;;;6.45;1.80;;;21.20;53.70;;;;;;4842766;29;20504;-71
2022/05/28 02:33:46;;;;;;;3.58;1.83;;;21.20;53.70;;;;;;4842899;29;20109;-71
2022/05/28 02:36:14;;;;;;;3.03;1.70;;;21.20;53.70;;;;;;4841450;29;20098;-71
2022/05/28 02:38:40;;;;;;;4.00;2.00;;;21.20;53.70;;;;;;4810904;29;20042;-71
2022/05/28 02:41:06;;;;;;;3.70;2.00;;;21.20;53.60;;;;;;4841354;29;20034;-71
2022/05/28 02:43:32;;;;;;;2.65;1.67;;;21.20;53.40;;;;;;4842470;29;20034;-71
2022/05/28 02:46:00;;;;;;;3.83;1.90;;;21.20;53.60;;;;;;4842318;29;20067;-71
2022/05/28 02:48:26;;;;;;;5.50;1.95;;;21.20;53.50;;;;;;4842060;29;20034;-71
2022/05/28 02:50:51;;;;;;;3.03;1.70;;;21.20;53.60;;;;;;4842267;29;20506;-72
2022/05/28 02:53:17;;;;;;;2.50;1.58;;;21.20;53.50;;;;;;4842618;29;20030;-71
2022/05/28 02:55:43;;;;;;;3.50;1.73;;;21.20;53.60;;;;;;4842467;29;20045;-71
2022/05/28 02:58:09;;;;;;;3.55;1.63;;;21.20;53.50;;;;;;4841914;29;20439;-71
2022/05/28 03:00:34;;;;;;;4.30;1.80;;;21.20;53.60;;;;;;4840772;29;20409;-71
2022/05/28 03:03:00;;;;;;;3.72;1.75;;;21.20;53.50;;;;;;4840881;29;20094;-71
2022/05/28 03:05:26;;;;;;;3.03;1.55;;;21.20;53.70;;;;;;4842099;29;20464;-71
2022/05/28 03:07:52;;;;;;;2.92;1.65;;;21.20;53.60;;;;;;4825587;29;20040;-71
2022/05/28 03:10:18;;;;;;;2.92;1.70;;;21.20;53.60;;;;;;4840617;29;20034;-71
2022/05/28 03:12:44;;;;;;;4.20;1.70;;;21.10;53.50;;;;;;4839882;29;20403;-71
2022/05/28 03:15:11;;;;;;;6.07;1.92;;;21.20;53.70;;;;;;4825717;29;20033;-71
2022/05/28 03:17:37;;;;;;;4.13;1.70;;;21.20;53.50;;;;;;4840663;29;20069;-71
2022/05/28 03:20:04;;;;;;;3.58;1.83;;;21.20;53.60;;;;;;4841981;29;20037;-71
2022/05/28 03:22:30;;;;;;;2.78;1.75;;;21.20;53.60;;;;;;4841699;29;20105;-71
2022/05/28 03:24:56;;;;;;;2.72;1.50;;;21.20;53.60;;;;;;4825579;29;20109;-71
2022/05/28 03:27:22;;;;;;;3.72;1.85;;;21.20;53.50;;;;;;4840188;29;20030;-71
2022/05/28 03:29:48;;;;;;;4.65;1.77;;;21.20;53.60;;;;;;4841703;29;20026;-71
2022/05/28 03:32:14;;;;;;;3.83;1.90;;;21.20;53.60;;;;;;4825350;29;20453;-71
2022/05/28 03:34:39;;;;;;;3.42;1.80;;;21.20;53.60;;;;;;4841707;29;20038;-71
2022/05/28 03:37:05;;;;;;;3.95;1.80;;;21.20;53.50;;;;;;4841477;29;20034;-71
2022/05/28 03:39:31;;;;;;;2.97;1.63;;;21.20;53.50;;;;;;4841457;29;20397;-71
2022/05/28 03:41:57;;;;;;;3.88;1.63;;;21.20;53.40;;;;;;4825687;29;20128;-71
2022/05/28 03:44:22;;;;;;;3.90;1.80;;;21.20;53.40;;;;;;4840151;29;20037;-70
2022/05/28 03:46:48;;;;;;;3.50;1.52;;;21.20;53.50;;;;;;4840214;29;20116;-71
2022/05/28 03:49:24;;;;;;;2.85;1.80;;;21.20;53.60;;;;;;4840925;29;20030;-70
2022/05/28 03:51:50;;;;;;;4.22;1.98;;;21.20;53.40;;;;;;4841229;29;20120;-70
2022/05/28 03:54:15;;;;;;;3.05;1.65;;;21.20;53.70;;;;;;4841337;29;20117;-70
2022/05/28 03:56:43;;;;;;;3.75;1.92;;;21.20;53.40;;;;;;4840106;29;20038;-70
2022/05/28 03:59:09;;;;;;;3.30;1.80;;;21.20;53.40;;;;;;4824586;29;20357;-70
2022/05/28 04:01:36;;;;;;;3.15;1.77;;;21.20;53.50;;;;;;4841194;29;20064;-71
2022/05/28 04:04:02;;;;;;;4.78;1.92;;;21.10;53.40;;;;;;4839803;29;20579;-70
2022/05/28 04:06:28;;;;;;;4.47;1.95;;;21.10;53.40;;;;;;4824879;29;20057;-70
2022/05/28 04:08:54;;;;;;;3.85;1.73;;;21.10;53.30;;;;;;4839430;29;20403;-70
2022/05/28 04:11:20;;;;;;;4.43;1.80;;;21.10;53.50;;;;;;4824802;29;20428;-70
2022/05/28 04:13:46;;;;;;;4.18;1.98;;;21.10;53.20;;;;;;4840765;29;20117;-70
2022/05/28 04:16:14;;;;;;;5.13;1.75;;;21.10;53.30;;;;;;4839819;29;20082;-70
2022/05/28 04:18:40;;;;;;;3.65;2.00;;;21.10;53.30;;;;;;4824446;29;20041;-70
2022/05/28 04:21:07;;;;;;;3.35;2.03;;;21.10;53.30;;;;;;4840947;29;20112;-70
2022/05/28 04:23:33;;;;;;;4.88;2.15;;;21.10;53.30;;;;;;4839025;29;20114;-70
2022/05/28 04:25:59;;;;;;;4.22;2.10;;;21.10;53.30;;;;;;4839739;29;20030;-70
2022/05/28 04:28:25;;;;;;;4.43;2.30;;;21.10;53.30;;;;;;4840304;29;20405;-70
2022/05/28 04:30:50;;;;;;;3.90;2.20;;;21.10;53.20;;;;;;4840523;29;20030;-70
2022/05/28 04:33:16;;;;;;;5.00;2.30;;;21.10;53.20;;;;;;4840702;29;20026;-71
2022/05/28 04:35:42;;;;;;;3.22;2.00;;;21.10;53.20;;;;;;4840664;29;20061;-70
2022/05/28 04:38:10;;;;;;;3.85;1.88;;;21.10;53.30;;;;;;4840542;29;20034;-70
2022/05/28 04:40:36;;;;;;;4.43;2.13;;;21.10;53.30;;;;;;4839549;29;20030;-70
2022/05/28 04:43:02;;;;;;;5.57;2.42;;;21.10;53.30;;;;;;4840732;29;20044;-70
2022/05/28 04:45:28;;;;;;;4.68;2.42;;;21.10;53.30;;;;;;4809268;29;20066;-70
2022/05/28 04:47:53;;;;;;;4.13;2.15;;;21.10;53.40;;;;;;4839128;29;20069;-70
2022/05/28 04:50:19;;;;;;;5.80;2.20;;;21.10;53.30;;;;;;4839205;29;20553;-70
2022/05/28 04:52:45;;;;;;;3.13;2.03;;;21.10;53.30;;;;;;4840521;29;20026;-70
2022/05/28 04:55:11;;;;;;;3.75;2.10;;;21.10;53.20;;;;;;4840630;29;20026;-70
2022/05/28 04:57:37;;;;;;;3.60;2.10;;;21.10;53.50;;;;;;4823555;29;20501;-71
2022/05/28 05:00:07;;;;;;;2.47;1.92;;;21.10;53.30;;;;;;4824298;29;20125;-71
2022/05/28 05:02:33;;;;;;;;;;;21.10;53.30;;;;;;4839694;29;20034;-71
2022/05/28 05:04:59;;;;;;;4.60;2.50;;;21.10;53.20;;;;;;4840690;29;19934;-70
2022/05/28 05:07:25;;;;;;;4.80;2.20;;;21.10;53.20;;;;;;4839854;29;20041;-70
2022/05/28 05:09:51;;;;;;;4.68;2.35;;;21.10;53.20;;;;;;4840724;29;20140;-71
2022/05/28 05:12:17;;;;;;;5.32;2.50;;;21.10;53.20;;;;;;4839385;29;20033;-71
2022/05/28 05:14:42;;;;;;;4.95;2.33;;;21.10;53.20;;;;;;4841858;29;20098;-71
2022/05/28 05:17:08;;;;;;;3.95;2.25;;;21.10;53.10;;;;;;4840573;29;20468;-70
2022/05/28 05:19:34;;;;;;;3.40;2.17;;;21.10;53.10;;;;;;4840020;29;20501;-71
2022/05/28 05:22:00;;;;;;;4.85;2.50;;;21.10;53.20;;;;;;4839182;29;20120;-71
2022/05/28 05:24:26;;;;;;;4.57;2.45;;;21.10;53.30;;;;;;4887842;23;20055;-78
2022/05/28 05:26:52;;;;;;;5.53;2.42;;;21.10;53.20;;;;;;4895695;29;20164;-78
2022/05/28 05:29:18;;;;;;;5.85;2.45;;;21.10;53.10;;;;;;4893719;29;20845;-78
2022/05/28 05:31:44;;;;;;;4.72;2.45;;;21.10;53.20;;;;;;4894876;29;20041;-78
2022/05/28 05:34:10;;;;;;;5.65;2.50;;;21.10;53.20;;;;;;4894869;29;20063;-78
2022/05/28 05:36:36;;;;;;;5.13;2.63;;;21.10;53.10;;;;;;4898445;29;20060;-79
2022/05/28 05:39:03;;;;;;;7.00;2.63;;;21.10;53.10;;;;;;4899199;29;20033;-79
2022/05/28 05:41:29;;;;;;;5.20;2.75;;;21.10;53.10;;;;;;4899467;29;20103;-77
2022/05/28 05:43:54;;;;;;;5.88;2.97;;;21.10;53.10;;;;;;4899252;29;20028;-79
2022/05/28 05:46:20;;;;;;;5.03;2.65;;;21.10;53.10;;;;;;4898094;29;20065;-79
2022/05/28 05:48:46;;;;;;;5.68;2.63;;;21.10;53.10;;;;;;4898854;29;20535;-78
2022/05/28 05:51:15;;;;;;;4.28;2.47;;;21.10;53.10;;;;;;4898143;29;20032;-78
2022/05/28 05:53:41;;;;;;;5.93;2.77;;;21.10;53.10;;;;;;4897961;29;20031;-78
2022/05/28 05:56:08;;;;;;;5.00;2.95;;;21.10;53.30;;;;;;4897768;29;20031;-78
2022/05/28 05:58:34;;;;;;;4.43;2.50;;;21.10;53.70;;;;;;4898680;29;20034;-78
2022/05/28 06:01:02;;;;;;;5.35;2.75;;;21.10;53.10;;;;;;4898989;29;20040;-78
2022/05/28 06:03:28;;;;;;;5.20;2.85;;;21.10;53.10;;;;;;4898088;29;20151;-78
2022/05/28 06:05:59;;;;;;;3.90;2.28;;;21.10;53.10;;;;;;4882183;29;20490;-78
2022/05/28 06:08:26;;;;;;;5.18;2.70;;;21.10;53.00;;;;;;4898443;29;20504;-78
2022/05/28 06:10:52;;;;;;;5.78;2.85;;;21.10;53.10;;;;;;4898736;29;20103;-78
2022/05/28 06:13:18;;;;;;;3.90;2.45;;;21.10;53.10;;;;;;4882010;29;20112;-78
2022/05/28 06:15:45;;;;;;;4.80;2.70;;;21.10;53.10;;;;;;4898707;29;20025;-79
2022/05/28 06:18:12;;;;;;;6.25;2.90;;;21.10;53.00;;;;;;4898439;29;20447;-78
2022/05/28 06:20:38;;;;;;;4.63;2.72;;;21.10;53.00;;;;;;4898456;29;20036;-79
2022/05/28 06:23:04;;;;;;;5.32;2.70;;;21.10;53.10;;;;;;4898645;29;20039;-79
2022/05/28 06:25:30;;;;;;;6.20;2.40;;;21.10;53.10;;;;;;4898539;29;20269;-78
2022/05/28 06:27:55;;;;;;;4.97;2.63;;;21.10;53.20;;;;;;4897200;29;20040;-78
2022/05/28 06:30:22;;;;;;;6.30;3.03;;;21.10;53.00;;;;;;4898596;29;20043;-78
2022/05/28 06:32:48;;;;;;;6.47;2.97;;;21.10;53.10;;;;;;4897380;29;20077;-77
2022/05/28 06:35:14;;;;;;;6.05;2.97;;;21.10;53.10;;;;;;4897175;29;20450;-77
2022/05/28 06:37:40;;;;;;;4.40;2.60;;;21.00;53.00;;;;;;4881337;29;20489;-78
2022/05/28 06:40:06;;;;;;;5.05;2.80;;;21.00;53.00;;;;;;4898260;29;20033;-78
2022/05/28 06:42:32;;;;;;;5.43;2.63;;;21.10;53.00;;;;;;4898473;29;20083;-78
2022/05/28 06:44:59;;;;;;;4.40;2.55;;;21.10;53.20;;;;;;4898126;29;20032;-77
2022/05/28 06:47:25;;;;;;;4.03;2.40;;;21.10;53.00;;;;;;4896759;29;20059;-77
2022/05/28 06:52:36;;;;;;;4.55;2.65;;;21.00;52.90;;;;;;4898113;29;20088;-78
2022/05/28 06:55:03;;;;;;;4.50;2.55;;;21.10;53.10;;;;;;4897019;29;20116;-77
2022/05/28 06:57:29;;;;;;;4.65;2.60;;;21.10;53.10;;;;;;4897743;29;20116;-77
2022/05/28 06:59:54;;;;;;;6.40;2.78;;;21.00;53.00;;;;;;4896864;29;20104;-78
2022/05/28 07:02:20;;;;;;;4.22;2.55;;;21.10;53.00;;;;;;4897866;29;20033;-78
2022/05/28 07:04:45;;;;;;;6.80;2.92;;;21.10;53.10;;;;;;4896967;29;20056;-78
2022/05/28 07:07:12;;;;;;;5.88;2.80;;;21.10;53.00;;;;;;4896481;29;20032;-78
2022/05/28 07:09:37;;;;;;;4.68;2.63;;;21.10;52.90;;;;;;4896409;29;20043;-77
2022/05/28 07:12:03;;;;;;;5.60;3.08;;;21.10;52.90;;;;;;4897639;29;20443;-77
2022/05/28 07:14:29;;;;;;;6.85;3.13;;;21.10;53.00;;;;;;4897832;29;20025;-78
2022/05/28 07:16:55;;;;;;;5.88;2.72;;;21.10;53.00;;;;;;4896476;29;20152;-77
2022/05/28 07:19:20;;;;;;;6.03;3.10;;;21.10;52.80;;;;;;4897200;29;20043;-77
2022/05/28 07:21:46;;;;;;;6.65;2.88;;;21.10;52.90;;;;;;4898095;29;20029;-77
2022/05/28 07:24:12;;;;;;;6.70;3.10;;;21.10;52.80;;;;;;4896226;29;20036;-77
2022/05/28 07:26:37;;;;;;;5.50;3.15;;;21.00;52.80;;;;;;4897482;29;20037;-77
2022/05/28 07:29:04;;;;;;;5.28;2.95;;;21.10;52.90;;;;;;4897244;29;20513;-77
2022/05/28 07:31:33;;;;;;;5.15;2.80;;;21.10;52.90;;;;;;4897331;29;20426;-77
2022/05/28 07:33:59;;;;;;;5.32;2.90;;;21.10;52.90;;;;;;4897207;29;20055;-77
2022/05/28 07:36:25;;;;;;;4.70;2.60;;;21.10;53.00;;;;;;4897277;29;20474;-77
2022/05/28 07:38:52;;;;;;;5.13;2.95;;;21.10;53.00;;;;;;4896947;29;20486;-77
2022/05/28 07:41:23;;;;;;;5.82;3.17;;;21.10;53.00;;;;;;4897238;29;20028;-77
2022/05/28 07:43:51;;;;;;;4.60;2.60;;;21.10;52.90;;;;;;4895990;29;20051;-77
2022/05/28 07:46:22;;;;;;;4.63;2.72;;;21.00;52.90;;;;;;4895778;29;20565;-77
2022/05/28 07:48:49;;;;;;;5.90;3.08;;;21.10;53.00;;;;;;4896683;29;20120;-78
2022/05/28 07:51:15;;;;;;;5.22;2.85;;;21.10;53.00;;;;;;4896155;29;20441;-78
2022/05/28 07:53:41;;;;;;;7.40;2.70;;;21.10;52.90;;;;;;4895659;29;20035;-77
2022/05/28 07:56:07;;;;;;;6.95;2.95;;;21.00;53.00;;;;;;4895528;29;20028;-77
2022/05/28 07:58:34;;;;;;;6.72;3.05;;;21.10;52.90;;;;;;4896244;29;20032;-78
2022/05/28 08:01:01;;;;;;;5.10;3.10;;;21.00;53.00;;;;;;4896817;29;20056;-77
2022/05/28 08:03:27;;;;;;;5.47;3.20;;;21.00;52.90;;;;;;4895523;29;20063;-77
2022/05/28 08:05:54;;;;;;;5.90;2.85;;;21.10;52.90;;;;;;4896724;29;20060;-77
2022/05/28 08:08:22;;;;;;;5.00;2.92;;;21.10;52.90;;;;;;4895312;29;20039;-77
2022/05/28 08:10:48;;;;;;;6.22;3.22;;;21.10;52.90;;;;;;4897067;29;20036;-77
2022/05/28 08:13:18;;;;;;;4.85;3.10;;;21.10;52.90;;;;;;4896719;29;20085;-77
2022/05/28 08:15:45;;;;;;;7.03;3.20;;;21.10;52.80;;;;;;4896663;29;20048;-77
2022/05/28 08:18:14;;;;;;;6.13;3.13;;;21.10;52.80;;;;;;4895058;29;20536;-77
2022/05/28 08:23:24;;;;;;;4.90;2.92;;;21.10;52.80;;;;;;4895513;29;20033;-77
2022/05/28 08:25:50;;;;;;;5.65;3.00;;;21.10;52.80;;;;;;4896584;29;20070;-77
2022/05/28 08:28:17;;;;;;;6.03;3.22;;;21.10;52.80;;;;;;4895792;29;20100;-77
2022/05/28 08:30:44;;;;;;;6.30;2.92;;;21.10;53.20;;;;;;4895174;29;20123;-77
2022/05/28 08:33:12;;;;;;;7.18;3.40;;;21.10;52.80;;;;;;4895293;29;20052;-77
2022/05/28 08:35:39;;;;;;;6.10;3.00;;;21.10;52.90;;;;;;4895383;29;20052;-77
2022/05/28 08:38:08;;;;;;;4.85;3.08;;;21.10;53.00;;;;;;4879195;29;20033;-77
2022/05/28 08:40:42;;;;;;;4.75;2.80;;;21.10;52.80;;;;;;4895066;29;20513;-77
2022/05/28 08:43:09;;;;;;;5.40;2.92;;;21.00;52.90;;;;;;4896429;29;20040;-77
2022/05/28 08:45:35;;;;;;;4.63;2.53;;;21.00;52.90;;;;;;4896613;29;20040;-77
2022/05/28 08:48:03;;;;;;;7.47;3.33;;;21.10;52.90;;;;;;4894798;29;20520;-78
2022/05/28 08:50:32;;;;;;;5.05;3.20;;;21.10;52.90;;;;;;4896314;29;20439;-78
2022/05/28 08:53:15;;;;;;;5.63;3.30;;;21.00;52.70;;;;;;4896336;29;20048;-77
2022/05/28 08:55:45;;;;;;;4.55;2.67;;;21.00;52.80;;;;;;4895250;29;20658;-77
2022/05/28 08:58:13;;;;;;;;;;;21.00;52.80;;;;;;4896204;29;20028;-77
2022/05/28 09:00:56;;;;;;;5.93;3.20;;;21.00;52.80;;;;;;4896185;29;19915;-77
2022/05/28 09:03:46;;;;;;;7.15;3.38;;;21.00;52.90;;;;;;4896058;29;20414;-77
2022/05/28 09:06:16;;;;;;;6.38;3.05;;;21.10;52.80;;;;;;4886211;29;20096;-77
2022/05/28 09:08:50;;;;;;;7.93;3.70;;;21.10;52.70;;;;;;4895708;29;20449;-77
2022/05/28 09:11:34;;;;;;;6.53;3.10;;;21.10;52.70;;;;;;4899792;29;20033;-77
2022/05/28 09:14:29;;;;;;;5.95;3.22;;;21.10;52.80;;;;;;4899845;29;20032;-77
2022/05/28 09:17:08;;;;;;;6.82;3.75;;;21.10;52.70;;;;;;4899785;29;20505;-78
2022/05/28 09:19:41;;;;;;;6.07;3.30;;;21.10;52.70;;;;;;4899548;29;20099;-78
2022/05/28 09:22:07;;;;;;;5.82;2.92;;;21.10;52.60;;;;;;4900102;29;20032;-77
2022/05/28 09:24:34;;;;;;;6.82;3.42;;;21.10;52.90;;;;;;4899738;29;20036;-77
2022/05/28 09:27:03;;;;;;;5.90;3.20;;;21.00;52.60;;;;;;4899769;29;20029;-77
2022/05/28 09:29:57;;;;;;;6.22;3.17;;;21.10;52.70;;;;;;4898059;29;20123;-77
2022/05/28 09:32:54;;;;;;;5.47;3.08;;;21.00;52.60;;;;;;4898395;29;20462;-77
2022/05/28 09:35:38;;;;;;;7.22;3.03;;;21.10;52.70;;;;;;4898381;29;20069;-77
2022/05/28 09:38:40;;;;;;;6.43;3.20;;;21.10;52.70;;;;;;4899200;29;20036;-77
2022/05/28 09:41:43;;;;;;;5.45;3.05;;;21.00;52.60;;;;;;4899517;29;20071;-78
2022/05/28 09:44:26;;;;;;;6.97;3.53;;;21.00;52.50;;;;;;4899231;29;20039;-77
2022/05/28 09:46:52;;;;;;;5.60;3.00;;;21.00;52.50;;;;;;4898247;29;20032;-78
2022/05/28 09:49:19;;;;;;;6.38;3.30;;;21.00;52.60;;;;;;4898199;29;20043;-79
2022/05/28 09:52:04;;;;;;;7.20;3.33;;;21.00;52.40;;;;;;4899260;29;20028;-78
2022/05/28 09:54:33;;;;;;;6.35;3.42;;;21.00;52.50;;;;;;4898019;29;20029;-79
2022/05/28 09:57:11;;;;;;;5.20;3.30;;;21.00;52.40;;;;;;4899440;29;20112;-78
2022/05/28 09:59:43;;;;;;;6.25;3.10;;;21.00;52.50;;;;;;4898965;29;20032;-78
2022/05/28 10:02:40;;;;;;;6.57;3.10;;;21.00;52.50;;;;;;4898954;29;20055;-78
2022/05/28 10:05:20;;;;;;;5.57;3.08;;;21.00;52.80;;;;;;4898998;29;20037;-79
2022/05/28 10:07:53;;;;;;;7.28;3.22;;;21.00;52.60;;;;;;4898689;29;20036;-78
2022/05/28 10:10:26;;;;;;;6.22;3.38;;;21.00;52.50;;;;;;4898758;29;20033;-78
2022/05/28 10:12:52;;;;;;;6.65;3.65;;;21.00;52.60;;;;;;4897529;29;20100;-79
2022/05/28 10:15:23;;;;;;;5.70;3.10;;;21.00;52.60;;;;;;4898849;29;20482;-78
2022/05/28 10:17:59;;;;;;;5.20;3.28;;;21.10;52.50;;;;;;4898438;29;20505;-78
2022/05/28 10:20:25;;;;;;;6.15;3.33;;;21.00;52.40;;;;;;4897566;29;20112;-78
2022/05/28 10:22:53;;;;;;;6.63;3.35;;;21.10;52.60;;;;;;4898478;29;20047;-78
2022/05/28 10:25:31;;;;;;;5.43;2.95;;;21.10;52.40;;;;;;4897615;29;20732;-78
2022/05/28 10:27:57;;;;;;;6.15;3.00;;;21.10;52.70;;;;;;4898128;29;20040;-78
2022/05/28 10:30:31;;;;;;;5.95;3.13;;;21.10;52.40;;;;;;4898574;29;20024;-78
2022/05/28 10:32:57;;;;;;;6.10;3.00;;;21.10;52.60;;;;;;4898449;29;20033;-78
2022/05/28 10:35:29;;;;;;;6.15;3.35;;;21.10;52.40;;;;;;4898484;29;20033;-78
2022/05/28 10:38:16;;;;;;;7.07;3.10;;;21.10;52.30;;;;;;4898128;29;20278;-78
2022/05/28 10:40:54;;;;;;;6.22;3.30;;;21.10;52.40;;;;;;4898386;29;20025;-78
2022/05/28 10:43:32;;;;;;;6.18;3.40;;;21.10;52.30;;;;;;4898460;29;20033;-78
2022/05/28 10:46:11;;;;;;;7.22;3.20;;;21.10;52.30;;;;;;4898317;29;20474;-78
2022/05/28 10:49:07;;;;;;;5.75;2.92;;;21.10;52.40;;;;;;4897946;29;20390;-78
2022/05/28 10:52:07;;;;;;;6.53;3.40;;;21.10;52.40;;;;;;4898686;29;20100;-79
2022/05/28 10:54:32;;;;;;;6.60;3.15;;;21.00;52.40;;;;;;4898112;29;20096;-78
2022/05/28 10:57:04;;;;;;;5.13;2.85;;;21.00;52.50;;;;;;4898127;29;20474;-79
2022/05/28 10:59:51;;;;;;;5.88;3.00;;;21.00;52.50;;;;;;4897912;29;20029;-78
2022/05/28 11:02:54;;;;;;;7.13;3.00;;;21.00;52.70;;;;;;4898158;29;20031;-78
2022/05/28 11:05:42;;;;;;;7.75;2.90;;;21.00;52.60;;;;;;4898236;29;20028;-78
2022/05/28 11:08:25;;;;;;;5.35;3.00;;;21.00;52.60;;;;;;4897667;29;20037;-78
2022/05/28 11:11:16;;;;;;;7.40;3.33;;;21.00;52.50;;;;;;4897753;29;20397;-78
2022/05/28 11:14:05;;;;;;;4.63;2.90;;;21.00;52.60;;;;;;4898034;29;20104;-78
2022/05/28 11:16:41;;;;;;;6.95;3.08;;;21.00;52.50;;;;;;4896484;29;20480;-79
2022/05/28 11:19:13;;;;;;;4.88;2.80;;;21.00;52.60;;;;;;4897099;29;20037;-78
2022/05/28 11:22:18;;;;;;;5.55;2.85;;;21.00;52.50;;;;;;4897603;29;20053;-78
2022/05/28 11:24:54;;;;;;;5.60;3.17;;;21.00;52.50;;;;;;4906565;23;20052;-72
2022/05/28 11:27:34;;;;;;;6.63;2.90;;;21.00;53.00;;;;;;4896179;29;20079;-72
2022/05/28 11:30:04;;;;;;;5.47;2.80;;;21.00;52.60;;;;;;4897479;29;20025;-72
2022/05/28 11:32:50;;;;;;;7.72;3.15;;;21.00;52.50;;;;;;4897211;29;20396;-72
2022/05/28 11:35:35;;;;;;;5.75;3.20;;;21.10;52.40;;;;;;4897068;29;20028;-72
2022/05/28 11:38:17;;;;;;;5.28;3.15;;;21.00;52.90;;;;;;4896451;29;20039;-72
2022/05/28 11:40:57;;;;;;;6.13;3.20;;;21.00;52.50;;;;;;4897851;29;20447;-72
2022/05/28 11:43:40;;;;;;;6.00;3.20;;;21.00;52.50;;;;;;4895945;29;20048;-72
2022/05/28 11:46:34;;;;;;;6.43;3.35;;;21.00;52.30;;;;;;4897117;29;20037;-72
2022/05/28 11:52:33;;;;;;;5.10;2.80;;;21.00;52.40;;;;;;4897200;29;20028;-72
2022/05/28 11:55:06;;;;;;;6.53;3.47;;;21.00;52.30;;;;;;4896810;29;20061;-72
2022/05/28 11:57:34;;;;;;;7.28;3.50;;;21.00;52.50;;;;;;4896727;29;20077;-72
2022/05/28 12:00:02;;;;;;;4.57;2.72;;;21.00;52.40;;;;;;4895526;29;20127;-72
2022/05/28 12:02:53;;;;;;;4.65;2.95;;;21.00;52.30;;;;;;4897439;29;20273;-72
2022/05/28 12:05:22;;;;;;;5.53;2.92;;;21.00;52.50;;;;;;4896941;29;20036;-72
2022/05/28 12:07:56;;;;;;;6.72;3.15;;;21.00;52.40;;;;;;4896006;29;20043;-72
2022/05/28 12:10:51;;;;;;;6.07;3.08;;;21.00;52.70;;;;;;4895435;29;20039;-72
2022/05/28 12:13:41;;;;;;;5.72;2.75;;;21.00;52.70;;;;;;4895854;29;20492;-72
2022/05/28 12:16:21;;;;;;;5.63;3.15;;;21.00;52.50;;;;;;4897084;29;20032;-72
2022/05/28 12:19:20;;;;;;;6.28;2.90;;;21.00;52.50;;;;;;4879382;29;20418;-72
2022/05/28 12:21:47;;;;;;;5.68;3.03;;;21.00;52.30;;;;;;4896396;29;20040;-72
2022/05/28 12:24:21;;;;;;;5.95;3.22;;;21.00;52.60;;;;;;4896400;29;20033;-72
2022/05/28 12:29:54;;;;;;;6.00;3.13;;;21.00;52.40;;;;;;4896165;29;20068;-72
2022/05/28 12:32:24;;;;;;;7.55;3.13;;;21.00;52.40;;;;;;4896279;29;20117;-72
2022/05/28 12:35:02;;;;;;;6.68;3.03;;;21.00;52.60;;;;;;4896146;29;20099;-72
2022/05/28 12:37:36;;;;;;;5.80;3.00;;;21.00;52.50;;;;;;4896140;29;20072;-70
2022/05/28 12:40:30;;;;;;;5.78;3.30;;;21.00;52.40;;;;;;4896379;29;20029;-71
2022/05/28 12:43:11;;;;;;;6.28;3.20;;;21.00;52.40;;;;;;4896472;29;20060;-71
2022/05/28 12:45:39;;;;;;;5.22;3.05;;;21.00;52.50;;;;;;4896087;29;20486;-71
2022/05/28 12:48:21;;;;;;;5.60;2.90;;;20.90;52.50;;;;;;4895949;29;20037;-71
2022/05/28 12:51:29;;;;;;;5.22;2.95;;;21.00;52.50;;;;;;4895924;29;20040;-72
2022/05/28 12:53:58;;;;;;;6.00;3.03;;;21.00;52.60;;;;;;4873804;29;20455;-72
2022/05/28 12:56:33;;;;;;;5.05;2.95;;;21.00;52.60;;;;;;4896157;29;20104;-72
2022/05/28 12:59:23;;;;;;;5.68;2.88;;;21.00;52.60;;;;;;4895616;29;20520;-71
2022/05/28 13:02:10;;;;;;;;;;;21.00;52.60;;;;;;4879662;29;20040;-71
2022/05/28 13:04:47;;;;;;;6.57;2.85;;;21.00;52.50;;;;;;4894932;29;19938;-72
2022/05/28 13:07:29;;;;;;;5.43;2.75;;;21.00;52.50;;;;;;4894724;29;20115;-72
2022/05/28 13:10:16;;;;;;;5.95;3.10;;;21.00;52.50;;;;;;4895976;29;20033;-72
2022/05/28 13:13:03;;;;;;;5.57;2.70;;;21.00;52.60;;;;;;4879292;29;20435;-73
2022/05/28 13:16:02;;;;;;;6.18;2.85;;;20.90;52.40;;;;;;4896061;29;20101;-73
2022/05/28 13:18:43;;;;;;;6.47;3.10;;;20.90;52.50;;;;;;4895849;29;20028;-72
2022/05/28 13:21:28;;;;;;;5.03;2.78;;;20.90;52.30;;;;;;4895779;29;20035;-72
2022/05/28 13:24:26;;;;;;;4.35;2.72;;;20.90;52.40;;;;;;4895760;29;20044;-72